sensor_id;sensor_type;location;lat;lon;timestamp;P1;durP1;ratioP1;P2;durP2;ratioP2
59263;SDS011;45030;42.720;23.344;2023-03-11T00:00:15;8.55;;;6.32;;
59263;SDS011;45030;42.720;23.344;2023-03-11T00:02:43;4.97;;;3.63;;
59263;SDS011;45030;42.720;23.344;2023-03-11T00:05:08;5.00;;;2.17;;
59263;SDS011;45030;42.720;23.344;2023-03-11T00:07:36;3.97;;;2.22;;
59263;SDS011;45030;42.720;23.344;2023-03-11T00:10:04;2.92;;;2.03;;
59263;SDS011;45030;42.720;23.344;2023-03-11T00:12:29;2.85;;;1.85;;
59263;SDS011;45030;42.720;23.344;2023-03-11T00:14:55;7.45;;;3.20;;
59263;SDS011;45030;42.720;23.344;2023-03-11T00:17:21;3.92;;;3.00;;
59263;SDS011;45030;42.720;23.344;2023-03-11T00:19:46;5.35;;;4.38;;
59263;SDS011;45030;42.720;23.344;2023-03-11T00:22:11;4.25;;;3.28;;
59263;SDS011;45030;42.720;23.344;2023-03-11T00:24:36;3.70;;;2.65;;
59263;SDS011;45030;42.720;23.344;2023-03-11T00:27:02;10.13;;;4.85;;
59263;SDS011;45030;42.720;23.344;2023-03-11T00:29:28;6.32;;;3.47;;
59263;SDS011;45030;42.720;23.344;2023-03-11T00:31:53;5.50;;;2.10;;
59263;SDS011;45030;42.720;23.344;2023-03-11T00:34:18;5.85;;;3.55;;
59263;SDS011;45030;42.720;23.344;2023-03-11T00:36:44;4.97;;;2.95;;
59263;SDS011;45030;42.720;23.344;2023-03-11T00:39:09;3.72;;;2.67;;
59263;SDS011;45030;42.720;23.344;2023-03-11T00:41:35;4.82;;;2.97;;
59263;SDS011;45030;42.720;23.344;2023-03-11T00:44:00;5.07;;;2.63;;
59263;SDS011;45030;42.720;23.344;2023-03-11T00:46:26;3.42;;;2.30;;
59263;SDS011;45030;42.720;23.344;2023-03-11T00:48:51;2.30;;;1.58;;
59263;SDS011;45030;42.720;23.344;2023-03-11T00:51:16;4.25;;;2.15;;
59263;SDS011;45030;42.720;23.344;2023-03-11T00:53:42;3.05;;;2.20;;
59263;SDS011;45030;42.720;23.344;2023-03-11T00:56:10;2.60;;;1.73;;
59263;SDS011;45030;42.720;23.344;2023-03-11T00:58:36;2.88;;;1.45;;
59263;SDS011;45030;42.720;23.344;2023-03-11T01:01:13;2.13;;;1.60;;
59263;SDS011;45030;42.720;23.344;2023-03-11T01:03:39;3.03;;;1.48;;
59263;SDS011;45030;42.720;23.344;2023-03-11T01:06:04;2.97;;;1.67;;
59263;SDS011;45030;42.720;23.344;2023-03-11T01:08:30;2.65;;;1.67;;
59263;SDS011;45030;42.720;23.344;2023-03-11T01:10:56;2.35;;;1.70;;
59263;SDS011;45030;42.720;23.344;2023-03-11T01:13:21;2.08;;;1.40;;
59263;SDS011;45030;42.720;23.344;2023-03-11T01:15:46;2.38;;;1.70;;
59263;SDS011;45030;42.720;23.344;2023-03-11T01:18:11;2.25;;;1.60;;
59263;SDS011;45030;42.720;23.344;2023-03-11T01:20:38;2.50;;;1.80;;
59263;SDS011;45030;42.720;23.344;2023-03-11T01:23:03;3.33;;;2.03;;
59263;SDS011;45030;42.720;23.344;2023-03-11T01:25:29;3.45;;;1.95;;
59263;SDS011;45030;42.720;23.344;2023-03-11T01:27:54;2.78;;;1.45;;
59263;SDS011;45030;42.720;23.344;2023-03-11T01:30:20;2.92;;;2.08;;
59263;SDS011;45030;42.720;23.344;2023-03-11T01:32:46;3.08;;;2.08;;
59263;SDS011;45030;42.720;23.344;2023-03-11T01:35:12;4.45;;;2.28;;
59263;SDS011;45030;42.720;23.344;2023-03-11T01:37:37;3.33;;;2.00;;
59263;SDS011;45030;42.720;23.344;2023-03-11T01:40:03;6.97;;;3.30;;
59263;SDS011;45030;42.720;23.344;2023-03-11T01:42:28;9.50;;;3.60;;
59263;SDS011;45030;42.720;23.344;2023-03-11T01:44:54;5.70;;;3.17;;
59263;SDS011;45030;42.720;23.344;2023-03-11T01:47:33;5.88;;;3.45;;
59263;SDS011;45030;42.720;23.344;2023-03-11T01:49:59;4.68;;;3.22;;
59263;SDS011;45030;42.720;23.344;2023-03-11T01:52:24;3.92;;;2.78;;
59263;SDS011;45030;42.720;23.344;2023-03-11T01:54:49;6.50;;;3.67;;
59263;SDS011;45030;42.720;23.344;2023-03-11T01:57:15;6.57;;;3.70;;
59263;SDS011;45030;42.720;23.344;2023-03-11T01:59:42;5.45;;;3.35;;
59263;SDS011;45030;42.720;23.344;2023-03-11T02:02:10;7.00;;;2.55;;
59263;SDS011;45030;42.720;23.344;2023-03-11T02:04:36;5.22;;;3.17;;
59263;SDS011;45030;42.720;23.344;2023-03-11T02:07:02;4.85;;;3.25;;
59263;SDS011;45030;42.720;23.344;2023-03-11T02:09:28;4.03;;;2.83;;
59263;SDS011;45030;42.720;23.344;2023-03-11T02:11:53;3.95;;;2.72;;
59263;SDS011;45030;42.720;23.344;2023-03-11T02:14:19;3.75;;;3.00;;
59263;SDS011;45030;42.720;23.344;2023-03-11T02:16:44;3.75;;;2.58;;
59263;SDS011;45030;42.720;23.344;2023-03-11T02:21:53;4.93;;;3.50;;
59263;SDS011;45030;42.720;23.344;2023-03-11T02:27:00;8.40;;;4.38;;
59263;SDS011;45030;42.720;23.344;2023-03-11T02:29:27;19.33;;;7.97;;
59263;SDS011;45030;42.720;23.344;2023-03-11T02:31:52;12.10;;;5.97;;
59263;SDS011;45030;42.720;23.344;2023-03-11T02:34:28;11.23;;;6.75;;
59263;SDS011;45030;42.720;23.344;2023-03-11T02:36:54;10.00;;;5.80;;
59263;SDS011;45030;42.720;23.344;2023-03-11T02:41:54;8.93;;;3.78;;
59263;SDS011;45030;42.720;23.344;2023-03-11T02:44:19;6.22;;;4.07;;
59263;SDS011;45030;42.720;23.344;2023-03-11T02:46:45;1.75;;;1.60;;
59263;SDS011;45030;42.720;23.344;2023-03-11T02:49:10;2.72;;;1.35;;
59263;SDS011;45030;42.720;23.344;2023-03-11T02:51:35;3.05;;;1.70;;
59263;SDS011;45030;42.720;23.344;2023-03-11T02:54:02;1.23;;;1.13;;
59263;SDS011;45030;42.720;23.344;2023-03-11T02:56:27;2.53;;;1.63;;
59263;SDS011;45030;42.720;23.344;2023-03-11T02:58:53;1.80;;;1.55;;
59263;SDS011;45030;42.720;23.344;2023-03-11T03:01:18;2.08;;;1.58;;
59263;SDS011;45030;42.720;23.344;2023-03-11T03:03:43;1.90;;;1.60;;
59263;SDS011;45030;42.720;23.344;2023-03-11T03:06:08;2.53;;;1.55;;
59263;SDS011;45030;42.720;23.344;2023-03-11T03:08:34;4.18;;;1.80;;
59263;SDS011;45030;42.720;23.344;2023-03-11T03:10:59;2.45;;;1.70;;
59263;SDS011;45030;42.720;23.344;2023-03-11T03:13:25;2.13;;;1.48;;
59263;SDS011;45030;42.720;23.344;2023-03-11T03:15:51;4.50;;;2.45;;
59263;SDS011;45030;42.720;23.344;2023-03-11T03:18:16;3.63;;;2.10;;
59263;SDS011;45030;42.720;23.344;2023-03-11T03:20:42;3.28;;;1.90;;
59263;SDS011;45030;42.720;23.344;2023-03-11T03:23:07;4.07;;;1.90;;
59263;SDS011;45030;42.720;23.344;2023-03-11T03:25:33;3.60;;;1.85;;
59263;SDS011;45030;42.720;23.344;2023-03-11T03:27:58;5.00;;;2.30;;
59263;SDS011;45030;42.720;23.344;2023-03-11T03:30:23;4.28;;;2.58;;
59263;SDS011;45030;42.720;23.344;2023-03-11T03:32:48;3.25;;;2.40;;
59263;SDS011;45030;42.720;23.344;2023-03-11T03:35:14;5.65;;;2.70;;
59263;SDS011;45030;42.720;23.344;2023-03-11T03:37:39;6.20;;;3.00;;
59263;SDS011;45030;42.720;23.344;2023-03-11T03:40:05;4.60;;;2.15;;
59263;SDS011;45030;42.720;23.344;2023-03-11T03:42:34;5.30;;;2.38;;
59263;SDS011;45030;42.720;23.344;2023-03-11T03:45:00;3.15;;;2.30;;
59263;SDS011;45030;42.720;23.344;2023-03-11T03:47:25;4.32;;;2.75;;
59263;SDS011;45030;42.720;23.344;2023-03-11T03:49:50;3.97;;;2.25;;
59263;SDS011;45030;42.720;23.344;2023-03-11T03:52:16;2.85;;;2.00;;
59263;SDS011;45030;42.720;23.344;2023-03-11T03:54:41;2.90;;;1.90;;
59263;SDS011;45030;42.720;23.344;2023-03-11T03:57:06;3.35;;;2.00;;
59263;SDS011;45030;42.720;23.344;2023-03-11T03:59:32;3.92;;;2.33;;
59263;SDS011;45030;42.720;23.344;2023-03-11T04:01:57;2.78;;;1.42;;
59263;SDS011;45030;42.720;23.344;2023-03-11T04:04:22;6.68;;;2.53;;
59263;SDS011;45030;42.720;23.344;2023-03-11T04:06:47;8.52;;;3.50;;
59263;SDS011;45030;42.720;23.344;2023-03-11T04:09:13;10.43;;;4.30;;
59263;SDS011;45030;42.720;23.344;2023-03-11T04:11:38;7.72;;;4.53;;
59263;SDS011;45030;42.720;23.344;2023-03-11T04:14:04;15.57;;;5.75;;
59263;SDS011;45030;42.720;23.344;2023-03-11T04:16:29;22.45;;;7.82;;
59263;SDS011;45030;42.720;23.344;2023-03-11T04:18:54;4.78;;;2.97;;
59263;SDS011;45030;42.720;23.344;2023-03-11T04:21:20;5.63;;;2.55;;
59263;SDS011;45030;42.720;23.344;2023-03-11T04:23:45;5.50;;;2.85;;
59263;SDS011;45030;42.720;23.344;2023-03-11T04:26:11;4.88;;;3.33;;
59263;SDS011;45030;42.720;23.344;2023-03-11T04:28:36;1.92;;;1.55;;
59263;SDS011;45030;42.720;23.344;2023-03-11T04:31:01;3.75;;;2.00;;
59263;SDS011;45030;42.720;23.344;2023-03-11T04:33:26;3.05;;;1.50;;
59263;SDS011;45030;42.720;23.344;2023-03-11T04:35:52;5.35;;;1.70;;
59263;SDS011;45030;42.720;23.344;2023-03-11T04:38:17;2.33;;;1.58;;
59263;SDS011;45030;42.720;23.344;2023-03-11T04:40:42;2.42;;;1.45;;
59263;SDS011;45030;42.720;23.344;2023-03-11T04:43:07;1.63;;;1.20;;
59263;SDS011;45030;42.720;23.344;2023-03-11T04:45:33;1.80;;;1.20;;
59263;SDS011;45030;42.720;23.344;2023-03-11T04:48:00;2.55;;;1.50;;
59263;SDS011;45030;42.720;23.344;2023-03-11T04:50:25;4.35;;;1.77;;
59263;SDS011;45030;42.720;23.344;2023-03-11T04:52:51;2.08;;;1.63;;
59263;SDS011;45030;42.720;23.344;2023-03-11T04:55:16;1.52;;;1.33;;
59263;SDS011;45030;42.720;23.344;2023-03-11T04:57:41;1.80;;;1.38;;
59263;SDS011;45030;42.720;23.344;2023-03-11T05:00:07;2.85;;;1.58;;
59263;SDS011;45030;42.720;23.344;2023-03-11T05:02:34;2.10;;;1.58;;
59263;SDS011;45030;42.720;23.344;2023-03-11T05:05:00;1.08;;;0.98;;
59263;SDS011;45030;42.720;23.344;2023-03-11T05:07:25;1.75;;;1.52;;
59263;SDS011;45030;42.720;23.344;2023-03-11T05:09:51;1.70;;;1.30;;
59263;SDS011;45030;42.720;23.344;2023-03-11T05:12:16;1.60;;;1.15;;
59263;SDS011;45030;42.720;23.344;2023-03-11T05:14:41;1.48;;;1.30;;
59263;SDS011;45030;42.720;23.344;2023-03-11T05:17:06;3.88;;;1.85;;
59263;SDS011;45030;42.720;23.344;2023-03-11T05:19:32;2.72;;;1.10;;
59263;SDS011;45030;42.720;23.344;2023-03-11T05:22:00;1.58;;;1.20;;
59263;SDS011;45030;42.720;23.344;2023-03-11T05:24:26;3.53;;;1.60;;
59263;SDS011;45030;42.720;23.344;2023-03-11T05:26:51;3.92;;;1.60;;
59263;SDS011;45030;42.720;23.344;2023-03-11T05:29:17;1.88;;;1.33;;
59263;SDS011;45030;42.720;23.344;2023-03-11T05:31:42;2.65;;;1.40;;
59263;SDS011;45030;42.720;23.344;2023-03-11T05:34:08;0.90;;;0.88;;
59263;SDS011;45030;42.720;23.344;2023-03-11T05:36:33;1.35;;;1.20;;
59263;SDS011;45030;42.720;23.344;2023-03-11T05:38:58;1.23;;;0.90;;
59263;SDS011;45030;42.720;23.344;2023-03-11T05:41:23;3.05;;;1.27;;
59263;SDS011;45030;42.720;23.344;2023-03-11T05:43:49;1.67;;;1.10;;
59263;SDS011;45030;42.720;23.344;2023-03-11T05:46:14;1.33;;;0.95;;
59263;SDS011;45030;42.720;23.344;2023-03-11T05:48:39;1.63;;;1.17;;
59263;SDS011;45030;42.720;23.344;2023-03-11T05:51:08;1.35;;;1.00;;
59263;SDS011;45030;42.720;23.344;2023-03-11T05:53:33;1.98;;;0.90;;
59263;SDS011;45030;42.720;23.344;2023-03-11T05:55:59;1.85;;;1.40;;
59263;SDS011;45030;42.720;23.344;2023-03-11T05:58:24;2.15;;;1.20;;
59263;SDS011;45030;42.720;23.344;2023-03-11T06:00:50;3.15;;;1.90;;
59263;SDS011;45030;42.720;23.344;2023-03-11T06:03:15;10.68;;;4.75;;
59263;SDS011;45030;42.720;23.344;2023-03-11T06:05:44;5.40;;;3.20;;
59263;SDS011;45030;42.720;23.344;2023-03-11T06:08:09;4.85;;;3.08;;
59263;SDS011;45030;42.720;23.344;2023-03-11T06:10:34;4.30;;;2.67;;
59263;SDS011;45030;42.720;23.344;2023-03-11T06:13:00;2.20;;;1.27;;
59263;SDS011;45030;42.720;23.344;2023-03-11T06:15:25;6.20;;;3.22;;
59263;SDS011;45030;42.720;23.344;2023-03-11T06:17:50;4.55;;;2.40;;
59263;SDS011;45030;42.720;23.344;2023-03-11T06:20:15;3.92;;;2.58;;
59263;SDS011;45030;42.720;23.344;2023-03-11T06:22:41;3.20;;;2.70;;
59263;SDS011;45030;42.720;23.344;2023-03-11T06:25:06;7.25;;;3.97;;
59263;SDS011;45030;42.720;23.344;2023-03-11T06:27:32;4.55;;;2.83;;
59263;SDS011;45030;42.720;23.344;2023-03-11T06:29:57;4.55;;;2.75;;
59263;SDS011;45030;42.720;23.344;2023-03-11T06:32:22;6.70;;;2.60;;
59263;SDS011;45030;42.720;23.344;2023-03-11T06:34:51;5.18;;;2.75;;
59263;SDS011;45030;42.720;23.344;2023-03-11T06:37:16;2.85;;;1.90;;
59263;SDS011;45030;42.720;23.344;2023-03-11T06:39:41;3.75;;;2.13;;
59263;SDS011;45030;42.720;23.344;2023-03-11T06:42:10;5.68;;;3.40;;
59263;SDS011;45030;42.720;23.344;2023-03-11T06:44:35;7.07;;;3.30;;
59263;SDS011;45030;42.720;23.344;2023-03-11T06:47:01;5.78;;;3.47;;
59263;SDS011;45030;42.720;23.344;2023-03-11T06:49:26;6.88;;;3.08;;
59263;SDS011;45030;42.720;23.344;2023-03-11T06:51:52;6.65;;;2.80;;
59263;SDS011;45030;42.720;23.344;2023-03-11T06:54:17;5.55;;;2.55;;
59263;SDS011;45030;42.720;23.344;2023-03-11T06:56:42;5.40;;;3.20;;
59263;SDS011;45030;42.720;23.344;2023-03-11T06:59:08;27.95;;;13.65;;
59263;SDS011;45030;42.720;23.344;2023-03-11T07:01:33;4.55;;;2.60;;
59263;SDS011;45030;42.720;23.344;2023-03-11T07:03:58;8.63;;;5.57;;
59263;SDS011;45030;42.720;23.344;2023-03-11T07:06:24;2.78;;;1.90;;
59263;SDS011;45030;42.720;23.344;2023-03-11T07:08:50;3.58;;;2.60;;
59263;SDS011;45030;42.720;23.344;2023-03-11T07:11:16;6.00;;;3.00;;
59263;SDS011;45030;42.720;23.344;2023-03-11T07:13:42;3.50;;;1.75;;
59263;SDS011;45030;42.720;23.344;2023-03-11T07:16:09;4.88;;;2.53;;
59263;SDS011;45030;42.720;23.344;2023-03-11T07:18:35;5.68;;;2.55;;
59263;SDS011;45030;42.720;23.344;2023-03-11T07:21:01;4.85;;;3.08;;
59263;SDS011;45030;42.720;23.344;2023-03-11T07:23:26;6.97;;;4.07;;
59263;SDS011;45030;42.720;23.344;2023-03-11T07:25:52;4.70;;;3.25;;
59263;SDS011;45030;42.720;23.344;2023-03-11T07:28:23;4.45;;;2.42;;
59263;SDS011;45030;42.720;23.344;2023-03-11T07:30:48;3.88;;;2.78;;
59263;SDS011;45030;42.720;23.344;2023-03-11T07:33:13;3.70;;;1.80;;
59263;SDS011;45030;42.720;23.344;2023-03-11T07:35:39;4.07;;;2.42;;
59263;SDS011;45030;42.720;23.344;2023-03-11T07:38:04;3.80;;;1.73;;
59263;SDS011;45030;42.720;23.344;2023-03-11T07:40:29;6.13;;;2.72;;
59263;SDS011;45030;42.720;23.344;2023-03-11T07:42:55;10.27;;;5.35;;
59263;SDS011;45030;42.720;23.344;2023-03-11T07:45:20;6.57;;;4.03;;
59263;SDS011;45030;42.720;23.344;2023-03-11T07:47:45;5.22;;;2.72;;
59263;SDS011;45030;42.720;23.344;2023-03-11T07:50:10;3.03;;;1.73;;
59263;SDS011;45030;42.720;23.344;2023-03-11T07:52:35;3.80;;;2.10;;
59263;SDS011;45030;42.720;23.344;2023-03-11T07:55:01;2.65;;;1.58;;
59263;SDS011;45030;42.720;23.344;2023-03-11T07:57:26;2.40;;;1.55;;
59263;SDS011;45030;42.720;23.344;2023-03-11T07:59:51;3.10;;;1.25;;
59263;SDS011;45030;42.720;23.344;2023-03-11T08:02:17;2.00;;;1.30;;
59263;SDS011;45030;42.720;23.344;2023-03-11T08:04:42;2.67;;;1.20;;
59263;SDS011;45030;42.720;23.344;2023-03-11T08:07:07;1.63;;;0.90;;
59263;SDS011;45030;42.720;23.344;2023-03-11T08:09:35;0.93;;;0.73;;
59263;SDS011;45030;42.720;23.344;2023-03-11T08:12:01;1.85;;;0.98;;
59263;SDS011;45030;42.720;23.344;2023-03-11T08:14:26;1.45;;;1.10;;
59263;SDS011;45030;42.720;23.344;2023-03-11T08:16:51;1.23;;;0.90;;
59263;SDS011;45030;42.720;23.344;2023-03-11T08:19:17;1.25;;;0.80;;
59263;SDS011;45030;42.720;23.344;2023-03-11T08:21:42;2.05;;;0.80;;
59263;SDS011;45030;42.720;23.344;2023-03-11T08:24:08;0.80;;;0.70;;
59263;SDS011;45030;42.720;23.344;2023-03-11T08:26:34;0.82;;;0.70;;
59263;SDS011;45030;42.720;23.344;2023-03-11T08:28:59;2.60;;;0.77;;
59263;SDS011;45030;42.720;23.344;2023-03-11T08:31:26;0.60;;;0.60;;
59263;SDS011;45030;42.720;23.344;2023-03-11T08:33:55;1.42;;;0.85;;
59263;SDS011;45030;42.720;23.344;2023-03-11T08:36:21;2.63;;;1.00;;
59263;SDS011;45030;42.720;23.344;2023-03-11T08:38:46;2.15;;;1.23;;
59263;SDS011;45030;42.720;23.344;2023-03-11T08:41:12;3.33;;;1.70;;
59263;SDS011;45030;42.720;23.344;2023-03-11T08:43:37;1.35;;;0.90;;
59263;SDS011;45030;42.720;23.344;2023-03-11T08:46:03;3.72;;;1.60;;
59263;SDS011;45030;42.720;23.344;2023-03-11T08:48:30;1.00;;;0.70;;
59263;SDS011;45030;42.720;23.344;2023-03-11T08:50:56;1.90;;;1.23;;
59263;SDS011;45030;42.720;23.344;2023-03-11T08:53:21;1.33;;;0.90;;
59263;SDS011;45030;42.720;23.344;2023-03-11T08:55:48;1.35;;;0.95;;
59263;SDS011;45030;42.720;23.344;2023-03-11T08:58:13;2.65;;;1.27;;
59263;SDS011;45030;42.720;23.344;2023-03-11T09:00:38;2.40;;;1.48;;
59263;SDS011;45030;42.720;23.344;2023-03-11T09:03:03;1.83;;;1.50;;
59263;SDS011;45030;42.720;23.344;2023-03-11T09:05:29;2.65;;;2.00;;
59263;SDS011;45030;42.720;23.344;2023-03-11T09:07:54;1.95;;;1.33;;
59263;SDS011;45030;42.720;23.344;2023-03-11T09:10:19;1.63;;;0.98;;
59263;SDS011;45030;42.720;23.344;2023-03-11T09:12:44;2.40;;;1.60;;
59263;SDS011;45030;42.720;23.344;2023-03-11T09:15:10;2.80;;;1.23;;
59263;SDS011;45030;42.720;23.344;2023-03-11T09:17:35;2.08;;;1.23;;
59263;SDS011;45030;42.720;23.344;2023-03-11T09:20:00;2.63;;;1.10;;
59263;SDS011;45030;42.720;23.344;2023-03-11T09:22:26;2.00;;;1.20;;
59263;SDS011;45030;42.720;23.344;2023-03-11T09:24:51;5.97;;;1.88;;
59263;SDS011;45030;42.720;23.344;2023-03-11T09:27:16;2.53;;;0.93;;
59263;SDS011;45030;42.720;23.344;2023-03-11T09:29:42;1.80;;;1.10;;
59263;SDS011;45030;42.720;23.344;2023-03-11T09:32:08;2.53;;;1.00;;
59263;SDS011;45030;42.720;23.344;2023-03-11T09:34:36;3.25;;;1.05;;
59263;SDS011;45030;42.720;23.344;2023-03-11T09:37:01;1.95;;;0.85;;
59263;SDS011;45030;42.720;23.344;2023-03-11T09:39:26;3.17;;;1.40;;
59263;SDS011;45030;42.720;23.344;2023-03-11T09:41:52;2.33;;;1.27;;
59263;SDS011;45030;42.720;23.344;2023-03-11T09:49:42;2.53;;;1.10;;
59263;SDS011;45030;42.720;23.344;2023-03-11T09:52:19;1.20;;;0.88;;
59263;SDS011;45030;42.720;23.344;2023-03-11T09:54:49;2.40;;;0.98;;
59263;SDS011;45030;42.720;23.344;2023-03-11T09:57:27;2.03;;;1.35;;
59263;SDS011;45030;42.720;23.344;2023-03-11T09:59:53;4.28;;;1.83;;
59263;SDS011;45030;42.720;23.344;2023-03-11T10:02:20;1.92;;;1.35;;
59263;SDS011;45030;42.720;23.344;2023-03-11T10:04:58;2.65;;;1.02;;
59263;SDS011;45030;42.720;23.344;2023-03-11T10:07:26;1.92;;;0.90;;
59263;SDS011;45030;42.720;23.344;2023-03-11T10:09:56;6.35;;;2.35;;
59263;SDS011;45030;42.720;23.344;2023-03-11T10:13:08;5.15;;;3.40;;
59263;SDS011;45030;42.720;23.344;2023-03-11T10:15:15;2.80;;;1.45;;
59263;SDS011;45030;42.720;23.344;2023-03-11T10:28:13;4.85;;;1.58;;
59263;SDS011;45030;42.720;23.344;2023-03-11T10:30:51;2.08;;;0.90;;
59263;SDS011;45030;42.720;23.344;2023-03-11T10:33:20;1.95;;;1.33;;
59263;SDS011;45030;42.720;23.344;2023-03-11T10:35:51;2.67;;;1.10;;
59263;SDS011;45030;42.720;23.344;2023-03-11T10:38:29;1.33;;;0.98;;
59263;SDS011;45030;42.720;23.344;2023-03-11T10:40:56;2.60;;;0.95;;
59263;SDS011;45030;42.720;23.344;2023-03-11T10:43:30;2.05;;;0.95;;
59263;SDS011;45030;42.720;23.344;2023-03-11T10:45:57;1.52;;;1.10;;
59263;SDS011;45030;42.720;23.344;2023-03-11T10:48:23;2.95;;;1.20;;
59263;SDS011;45030;42.720;23.344;2023-03-11T10:53:15;1.60;;;1.05;;
59263;SDS011;45030;42.720;23.344;2023-03-11T10:55:45;3.25;;;2.17;;
59263;SDS011;45030;42.720;23.344;2023-03-11T10:58:12;3.90;;;1.80;;
59263;SDS011;45030;42.720;23.344;2023-03-11T11:00:37;1.27;;;1.05;;
59263;SDS011;45030;42.720;23.344;2023-03-11T11:03:02;2.60;;;1.73;;
59263;SDS011;45030;42.720;23.344;2023-03-11T11:05:31;2.20;;;1.50;;
59263;SDS011;45030;42.720;23.344;2023-03-11T11:08:13;2.20;;;1.25;;
59263;SDS011;45030;42.720;23.344;2023-03-11T11:10:49;3.88;;;2.65;;
59263;SDS011;45030;42.720;23.344;2023-03-11T11:13:19;2.40;;;1.65;;
59263;SDS011;45030;42.720;23.344;2023-03-11T11:20:57;3.28;;;1.58;;
59263;SDS011;45030;42.720;23.344;2023-03-11T11:23:35;2.35;;;1.33;;
59263;SDS011;45030;42.720;23.344;2023-03-11T11:26:04;2.45;;;1.80;;
59263;SDS011;45030;42.720;23.344;2023-03-11T11:28:31;2.92;;;1.63;;
59263;SDS011;45030;42.720;23.344;2023-03-11T11:31:01;2.97;;;1.50;;
59263;SDS011;45030;42.720;23.344;2023-03-11T11:33:31;5.32;;;1.48;;
59263;SDS011;45030;42.720;23.344;2023-03-11T11:36:01;3.95;;;2.05;;
59263;SDS011;45030;42.720;23.344;2023-03-11T11:38:28;2.08;;;1.25;;
59263;SDS011;45030;42.720;23.344;2023-03-11T11:40:54;2.08;;;1.10;;
59263;SDS011;45030;42.720;23.344;2023-03-11T11:43:40;2.00;;;1.30;;
59263;SDS011;45030;42.720;23.344;2023-03-11T11:46:10;3.10;;;1.48;;
59263;SDS011;45030;42.720;23.344;2023-03-11T11:48:59;2.97;;;1.40;;
59263;SDS011;45030;42.720;23.344;2023-03-11T11:51:34;3.33;;;1.33;;
59263;SDS011;45030;42.720;23.344;2023-03-11T11:56:31;1.58;;;0.77;;
59263;SDS011;45030;42.720;23.344;2023-03-11T11:58:56;1.95;;;1.00;;
59263;SDS011;45030;42.720;23.344;2023-03-11T12:02:23;2.80;;;1.23;;
59263;SDS011;45030;42.720;23.344;2023-03-11T12:06:44;4.40;;;1.48;;
59263;SDS011;45030;42.720;23.344;2023-03-11T12:14:37;2.88;;;1.40;;
59263;SDS011;45030;42.720;23.344;2023-03-11T12:17:04;2.42;;;0.98;;
59263;SDS011;45030;42.720;23.344;2023-03-11T12:22:02;2.40;;;1.25;;
59263;SDS011;45030;42.720;23.344;2023-03-11T12:24:42;2.88;;;1.00;;
59263;SDS011;45030;42.720;23.344;2023-03-11T12:27:33;2.47;;;1.05;;
59263;SDS011;45030;42.720;23.344;2023-03-11T12:30:02;5.53;;;1.35;;
59263;SDS011;45030;42.720;23.344;2023-03-11T12:32:31;4.18;;;1.60;;
59263;SDS011;45030;42.720;23.344;2023-03-11T12:35:01;2.88;;;1.20;;
59263;SDS011;45030;42.720;23.344;2023-03-11T12:37:28;2.88;;;1.40;;
59263;SDS011;45030;42.720;23.344;2023-03-11T12:39:54;1.95;;;1.15;;
59263;SDS011;45030;42.720;23.344;2023-03-11T12:42:20;2.38;;;1.00;;
59263;SDS011;45030;42.720;23.344;2023-03-11T12:44:46;3.05;;;1.30;;
59263;SDS011;45030;42.720;23.344;2023-03-11T12:54:46;4.10;;;1.23;;
59263;SDS011;45030;42.720;23.344;2023-03-11T13:07:28;4.57;;;1.30;;
59263;SDS011;45030;42.720;23.344;2023-03-11T13:10:00;3.45;;;1.17;;
59263;SDS011;45030;42.720;23.344;2023-03-11T13:17:58;3.63;;;1.58;;
59263;SDS011;45030;42.720;23.344;2023-03-11T13:30:54;2.20;;;1.63;;
59263;SDS011;45030;42.720;23.344;2023-03-11T13:33:54;5.03;;;2.60;;
59263;SDS011;45030;42.720;23.344;2023-03-11T13:38:41;2.83;;;2.20;;
59263;SDS011;45030;42.720;23.344;2023-03-11T13:41:15;2.63;;;1.90;;
59263;SDS011;45030;42.720;23.344;2023-03-11T13:43:44;3.42;;;1.58;;
59263;SDS011;45030;42.720;23.344;2023-03-11T13:46:25;3.33;;;1.50;;
59263;SDS011;45030;42.720;23.344;2023-03-11T13:48:50;1.80;;;1.40;;
59263;SDS011;45030;42.720;23.344;2023-03-11T13:51:23;1.52;;;1.15;;
59263;SDS011;45030;42.720;23.344;2023-03-11T13:53:53;2.03;;;1.60;;
59263;SDS011;45030;42.720;23.344;2023-03-11T13:58:48;3.53;;;2.15;;
59263;SDS011;45030;42.720;23.344;2023-03-11T14:01:13;3.55;;;1.90;;
59263;SDS011;45030;42.720;23.344;2023-03-11T14:03:40;1.33;;;1.20;;
59263;SDS011;45030;42.720;23.344;2023-03-11T14:06:07;3.08;;;1.98;;
59263;SDS011;45030;42.720;23.344;2023-03-11T14:08:33;3.88;;;1.83;;
59263;SDS011;45030;42.720;23.344;2023-03-11T14:11:00;4.53;;;2.38;;
59263;SDS011;45030;42.720;23.344;2023-03-11T14:13:32;4.15;;;2.28;;
59263;SDS011;45030;42.720;23.344;2023-03-11T14:21:24;6.35;;;3.13;;
59263;SDS011;45030;42.720;23.344;2023-03-11T14:23:51;6.75;;;4.10;;
59263;SDS011;45030;42.720;23.344;2023-03-11T14:28:43;11.57;;;5.57;;
59263;SDS011;45030;42.720;23.344;2023-03-11T14:31:19;9.43;;;5.50;;
59263;SDS011;45030;42.720;23.344;2023-03-11T14:33:52;16.80;;;8.55;;
59263;SDS011;45030;42.720;23.344;2023-03-11T14:36:18;17.90;;;9.02;;
59263;SDS011;45030;42.720;23.344;2023-03-11T14:38:43;9.45;;;5.40;;
59263;SDS011;45030;42.720;23.344;2023-03-11T14:41:10;31.38;;;14.68;;
59263;SDS011;45030;42.720;23.344;2023-03-11T14:43:38;10.05;;;5.50;;
59263;SDS011;45030;42.720;23.344;2023-03-11T14:46:04;4.07;;;2.50;;
59263;SDS011;45030;42.720;23.344;2023-03-11T14:48:31;4.43;;;2.50;;
59263;SDS011;45030;42.720;23.344;2023-03-11T14:50:58;11.90;;;6.65;;
59263;SDS011;45030;42.720;23.344;2023-03-11T14:53:27;9.35;;;4.63;;
59263;SDS011;45030;42.720;23.344;2023-03-11T14:55:57;4.68;;;2.92;;
59263;SDS011;45030;42.720;23.344;2023-03-11T15:00:49;5.65;;;3.42;;
59263;SDS011;45030;42.720;23.344;2023-03-11T15:03:19;5.38;;;2.90;;
59263;SDS011;45030;42.720;23.344;2023-03-11T15:05:49;4.38;;;2.38;;
59263;SDS011;45030;42.720;23.344;2023-03-11T15:08:17;7.57;;;3.92;;
59263;SDS011;45030;42.720;23.344;2023-03-11T15:13:44;9.25;;;2.53;;
59263;SDS011;45030;42.720;23.344;2023-03-11T15:16:44;3.75;;;2.70;;
59263;SDS011;45030;42.720;23.344;2023-03-11T15:19:44;5.85;;;3.05;;
59263;SDS011;45030;42.720;23.344;2023-03-11T15:21:51;4.05;;;2.92;;
59263;SDS011;45030;42.720;23.344;2023-03-11T15:24:21;7.65;;;3.78;;
59263;SDS011;45030;42.720;23.344;2023-03-11T15:26:54;5.18;;;3.70;;
59263;SDS011;45030;42.720;23.344;2023-03-11T15:29:19;5.88;;;3.13;;
59263;SDS011;45030;42.720;23.344;2023-03-11T15:31:46;6.55;;;4.60;;
59263;SDS011;45030;42.720;23.344;2023-03-11T15:41:40;11.10;;;6.28;;
59263;SDS011;45030;42.720;23.344;2023-03-11T15:44:14;10.23;;;5.32;;
59263;SDS011;45030;42.720;23.344;2023-03-11T15:46:45;7.05;;;3.58;;
59263;SDS011;45030;42.720;23.344;2023-03-11T15:49:10;11.60;;;7.55;;
59263;SDS011;45030;42.720;23.344;2023-03-11T15:51:36;5.72;;;3.60;;
59263;SDS011;45030;42.720;23.344;2023-03-11T15:54:01;11.95;;;4.45;;
59263;SDS011;45030;42.720;23.344;2023-03-11T15:56:26;13.77;;;6.47;;
59263;SDS011;45030;42.720;23.344;2023-03-11T15:58:52;7.45;;;5.40;;
59263;SDS011;45030;42.720;23.344;2023-03-11T16:01:17;6.97;;;6.25;;
59263;SDS011;45030;42.720;23.344;2023-03-11T16:03:46;6.82;;;5.00;;
59263;SDS011;45030;42.720;23.344;2023-03-11T16:06:12;8.70;;;7.32;;
59263;SDS011;45030;42.720;23.344;2023-03-11T16:08:37;7.28;;;6.30;;
59263;SDS011;45030;42.720;23.344;2023-03-11T16:11:02;5.93;;;5.25;;
59263;SDS011;45030;42.720;23.344;2023-03-11T16:13:27;9.82;;;6.10;;
59263;SDS011;45030;42.720;23.344;2023-03-11T16:15:53;6.25;;;4.70;;